Time;durP1;ratioP1;P1;durP2;ratioP2;P2;SDS_P1;SDS_P2;PMS_P1;PMS_P2;Temp;Humidity;BMP_temperature;BMP_pressure;BME280_temperature;BME280_humidity;BME280_pressure;Samples;Min_cycle;Max_cycle;Signal;HPM_P1;HPM_P2
2022/01/16 06:01:49;;;;;;;1999.90;999.90;;;;;;;;;;5600196;22;20238;-69
2022/01/16 06:04:34;;;;;;;1999.90;999.90;;;;;;;;;;5032772;28;20202;-69
2022/01/16 06:07:19;;;;;;;1999.90;999.90;;;;;;;;;;5033028;28;20683;-69
2022/01/16 06:10:04;;;;;;;1999.90;999.90;;;;;;;;;;5032588;28;20209;-69
2022/01/16 06:12:51;;;;;;;1999.90;999.90;;;;;;;;;;5013167;28;20688;-69
2022/01/16 06:15:37;;;;;;;1999.90;999.90;;;;;;;;;;5013144;28;20202;-69
2022/01/16 06:18:24;;;;;;;1999.90;999.90;;;;;;;;;;5012924;28;20210;-69
2022/01/16 06:21:09;;;;;;;1999.90;999.90;;;;;;;;;;5012966;28;20521;-69
2022/01/16 06:23:53;;;;;;;1999.90;999.90;;;;;;;;;;5013162;28;20258;-69
2022/01/16 06:26:39;;;;;;;1999.90;999.90;;;;;;;;;;5011345;28;20411;-69
2022/01/16 06:29:24;;;;;;;1999.90;999.90;;;;;;;;;;5012613;28;20206;-70
2022/01/16 06:32:09;;;;;;;1999.90;999.90;;;;;;;;;;5013006;28;20226;-69
2022/01/16 06:34:55;;;;;;;1999.90;999.90;;;;;;;;;;5012551;28;20517;-69
2022/01/16 06:37:40;;;;;;;1999.90;999.90;;;;;;;;;;5012811;28;20777;-68
2022/01/16 06:40:25;;;;;;;1999.90;999.90;;;;;;;;;;5012573;28;20199;-68
2022/01/16 06:43:10;;;;;;;1999.90;999.90;;;;;;;;;;5012868;28;20580;-69
2022/01/16 06:45:56;;;;;;;1999.90;999.90;;;;;;;;;;5012703;28;20693;-69
2022/01/16 06:48:42;;;;;;;1999.90;999.90;;;;;;;;;;5012273;28;20277;-68
2022/01/16 06:51:28;;;;;;;1999.90;999.90;;;;;;;;;;5011148;28;20411;-69
2022/01/16 06:54:13;;;;;;;1999.90;999.90;;;;;;;;;;5012195;28;20308;-69
2022/01/16 06:56:58;;;;;;;1999.90;999.90;;;;;;;;;;5012221;28;20680;-69
2022/01/16 06:59:45;;;;;;;1999.90;999.90;;;;;;;;;;5012165;28;20576;-68
2022/01/16 07:02:30;;;;;;;1999.90;999.90;;;;;;;;;;5012340;28;20239;-69
2022/01/16 07:05:15;;;;;;;1999.90;999.90;;;;;;;;;;5012370;28;20593;-68
2022/01/16 07:08:01;;;;;;;1999.90;999.90;;;;;;;;;;5012217;28;20279;-68
2022/01/16 07:10:46;;;;;;;1999.90;999.90;;;;;;;;;;5011973;28;20222;-68
2022/01/16 07:13:31;;;;;;;1999.90;999.90;;;;;;;;;;5012379;28;20222;-68
2022/01/16 07:16:16;;;;;;;1999.90;999.90;;;;;;;;;;5012475;28;20206;-68
2022/01/16 07:19:01;;;;;;;1999.90;999.90;;;;;;;;;;5012060;28;20214;-69
2022/01/16 07:21:46;;;;;;;1999.90;999.90;;;;;;;;;;5012138;28;20341;-69
2022/01/16 07:24:32;;;;;;;1999.90;999.90;;;;;;;;;;5011885;28;20202;-69
2022/01/16 07:27:18;;;;;;;1999.90;999.90;;;;;;;;;;5012392;28;20338;-68
2022/01/16 07:30:03;;;;;;;1999.90;999.90;;;;;;;;;;5016096;28;20202;-68
2022/01/16 07:32:48;;;;;;;1999.90;999.90;;;;;;;;;;5016166;28;20242;-68
2022/01/16 07:35:34;;;;;;;1999.90;999.90;;;;;;;;;;5015756;28;20230;-68
2022/01/16 07:38:19;;;;;;;1999.90;999.90;;;;;;;;;;5015870;28;20614;-69
2022/01/16 07:41:05;;;;;;;1999.90;999.90;;;;;;;;;;5016318;28;20246;-69
2022/01/16 07:43:50;;;;;;;1999.90;999.90;;;;;;;;;;5016260;28;20271;-69
2022/01/16 07:46:35;;;;;;;1999.90;999.90;;;;;;;;;;5015900;28;20338;-68
2022/01/16 07:49:19;;;;;;;1999.90;999.90;;;;;;;;;;5015600;28;20215;-69
2022/01/16 07:52:04;;;;;;;1999.90;999.90;;;;;;;;;;5015716;28;20350;-69
2022/01/16 07:54:49;;;;;;;1999.90;999.90;;;;;;;;;;5015571;28;20214;-67
2022/01/16 07:57:36;;;;;;;1999.90;999.90;;;;;;;;;;5014385;28;20411;-68
2022/01/16 08:00:21;;;;;;;1999.90;999.90;;;;;;;;;;5015514;28;20797;-68
2022/01/16 08:03:07;;;;;;;1999.90;999.90;;;;;;;;;;5015564;28;20202;-68
2022/01/16 08:05:52;;;;;;;1999.90;999.90;;;;;;;;;;5015675;28;20285;-68
2022/01/16 08:08:37;;;;;;;1999.90;999.90;;;;;;;;;;5015456;28;20214;-69
2022/01/16 08:11:22;;;;;;;1999.90;999.90;;;;;;;;;;5015412;28;20645;-69
2022/01/16 08:14:08;;;;;;;1999.90;999.90;;;;;;;;;;5015749;28;20230;-68
2022/01/16 08:16:56;;;;;;;1999.90;999.90;;;;;;;;;;5015370;28;20234;-69
2022/01/16 08:19:40;;;;;;;1999.90;999.90;;;;;;;;;;5014982;28;20206;-68
2022/01/16 08:22:26;;;;;;;1999.90;999.90;;;;;;;;;;5015610;28;20844;-69
2022/01/16 08:25:11;;;;;;;1999.90;999.90;;;;;;;;;;5015322;28;20587;-69
2022/01/16 08:27:57;;;;;;;1999.90;999.90;;;;;;;;;;5014913;28;20257;-68
2022/01/16 08:30:43;;;;;;;1999.90;999.90;;;;;;;;;;5015020;28;20246;-69
2022/01/16 08:33:28;;;;;;;1999.90;999.90;;;;;;;;;;5014884;28;20202;-68
2022/01/16 08:36:13;;;;;;;1999.90;999.90;;;;;;;;;;5015060;28;20322;-68
2022/01/16 08:38:58;;;;;;;1999.90;999.90;;;;;;;;;;5014398;28;20214;-69
2022/01/16 08:41:43;;;;;;;1999.90;999.90;;;;;;;;;;5015061;28;20230;-68
2022/01/16 08:44:27;;;;;;;1999.90;999.90;;;;;;;;;;5015177;28;20572;-68
2022/01/16 08:47:14;;;;;;;1999.90;999.90;;;;;;;;;;5014783;28;20322;-69
2022/01/16 08:50:02;;;;;;;1999.90;999.90;;;;;;;;;;5014531;28;20206;-68
2022/01/16 08:52:47;;;;;;;1999.90;999.90;;;;;;;;;;5014752;28;20206;-67
2022/01/16 08:55:33;;;;;;;1999.90;999.90;;;;;;;;;;5014263;28;20218;-68
2022/01/16 08:58:17;;;;;;;1999.90;999.90;;;;;;;;;;5014475;28;20203;-69
2022/01/16 09:01:04;;;;;;;1999.90;999.90;;;;;;;;;;5014162;28;20238;-70
2022/01/16 09:03:50;;;;;;;1999.90;999.90;;;;;;;;;;5014393;28;20207;-69
2022/01/16 09:06:35;;;;;;;1999.90;999.90;;;;;;;;;;5014394;28;20230;-68
2022/01/16 09:09:20;;;;;;;1999.90;999.90;;;;;;;;;;5014154;28;20262;-68
2022/01/16 09:12:05;;;;;;;1999.90;999.90;;;;;;;;;;5013875;28;20222;-69
2022/01/16 09:14:50;;;;;;;1999.90;999.90;;;;;;;;;;5013996;28;20242;-68
2022/01/16 09:17:35;;;;;;;1999.90;999.90;;;;;;;;;;5014038;28;20211;-68
2022/01/16 09:20:21;;;;;;;1999.90;999.90;;;;;;;;;;5014056;28;20250;-66
2022/01/16 09:23:06;;;;;;;1999.90;999.90;;;;;;;;;;5013833;28;20207;-68
2022/01/16 09:25:51;;;;;;;1999.90;999.90;;;;;;;;;;5014101;28;20688;-68
2022/01/16 09:28:36;;;;;;;1999.90;999.90;;;;;;;;;;5012012;28;20411;-68
2022/01/16 09:31:21;;;;;;;1999.90;999.90;;;;;;;;;;5013909;28;20588;-69
2022/01/16 09:34:06;;;;;;;1999.90;999.90;;;;;;;;;;5013730;28;20226;-68
2022/01/16 09:36:52;;;;;;;1999.90;999.90;;;;;;;;;;5013789;28;20246;-69
2022/01/16 09:39:38;;;;;;;1999.90;999.90;;;;;;;;;;5013700;28;20223;-68
2022/01/16 09:42:23;;;;;;;1999.90;999.90;;;;;;;;;;5013926;28;20253;-68
2022/01/16 09:45:10;;;;;;;1999.90;999.90;;;;;;;;;;5013476;28;20321;-68
2022/01/16 09:47:55;;;;;;;1999.90;999.90;;;;;;;;;;5013352;28;20254;-68
2022/01/16 09:50:39;;;;;;;1999.90;999.90;;;;;;;;;;5013297;28;21851;-68
2022/01/16 09:53:26;;;;;;;1999.90;999.90;;;;;;;;;;5012062;28;20382;-69
2022/01/16 09:56:11;;;;;;;1999.90;999.90;;;;;;;;;;5013229;28;20351;-67
2022/01/16 09:58:56;;;;;;;1999.90;999.90;;;;;;;;;;5013359;28;20224;-69
2022/01/16 10:01:41;;;;;;;1999.90;999.90;;;;;;;;;;5013260;28;20309;-69
2022/01/16 10:04:29;;;;;;;1999.90;999.90;;;;;;;;;;5013294;28;20693;-69
2022/01/16 10:07:17;;;;;;;1999.90;999.90;;;;;;;;;;5012986;28;20210;-69
2022/01/16 10:10:09;;;;;;;1999.90;999.90;;;;;;;;;;5013087;28;20287;-68
2022/01/16 10:12:56;;;;;;;1999.90;999.90;;;;;;;;;;5012989;28;20202;-68
2022/01/16 10:15:41;;;;;;;1999.90;999.90;;;;;;;;;;5012881;28;20354;-69
2022/01/16 10:18:34;;;;;;;1999.90;999.90;;;;;;;;;;5012818;28;20358;-68
2022/01/16 10:21:31;;;;;;;1999.90;999.90;;;;;;;;;;5012969;28;20230;-67
2022/01/16 10:24:17;;;;;;;1999.90;999.90;;;;;;;;;;5013082;28;20219;-68
2022/01/16 10:27:14;;;;;;;1999.90;999.90;;;;;;;;;;5013007;28;20577;-69
2022/01/16 10:30:01;;;;;;;1999.90;999.90;;;;;;;;;;5012382;28;20199;-69
2022/01/16 10:32:47;;;;;;;1999.90;999.90;;;;;;;;;;5012816;28;20206;-68
2022/01/16 10:35:37;;;;;;;1999.90;999.90;;;;;;;;;;5012504;28;20223;-68
2022/01/16 10:38:23;;;;;;;1999.90;999.90;;;;;;;;;;5012431;28;20214;-69
2022/01/16 10:41:13;;;;;;;1999.90;999.90;;;;;;;;;;5012815;28;20223;-69
2022/01/16 10:44:00;;;;;;;1999.90;999.90;;;;;;;;;;5013000;28;20672;-68
2022/01/16 10:46:44;;;;;;;1999.90;999.90;;;;;;;;;;5012602;28;20199;-69
2022/01/16 10:49:29;;;;;;;1999.90;999.90;;;;;;;;;;5012421;28;20229;-69
2022/01/16 10:52:14;;;;;;;1999.90;999.90;;;;;;;;;;5012429;28;20748;-68
2022/01/16 10:55:09;;;;;;;1999.90;999.90;;;;;;;;;;5012405;28;20246;-68
2022/01/16 10:58:01;;;;;;;1999.90;999.90;;;;;;;;;;5010852;28;20479;-68
2022/01/16 11:00:51;;;;;;;1999.90;999.90;;;;;;;;;;5012456;28;20230;-69
2022/01/16 11:03:38;;;;;;;1999.90;999.90;;;;;;;;;;5012197;28;20211;-69
2022/01/16 11:06:27;;;;;;;1999.90;999.90;;;;;;;;;;5012355;28;20200;-68
2022/01/16 11:09:27;;;;;;;1999.90;999.90;;;;;;;;;;5012179;28;20199;-68
2022/01/16 11:12:12;;;;;;;1999.90;999.90;;;;;;;;;;5012264;28;20230;-68
2022/01/16 11:14:57;;;;;;;1999.90;999.90;;;;;;;;;;5012466;28;20222;-68
2022/01/16 11:17:43;;;;;;;1999.90;999.90;;;;;;;;;;5012232;28;20202;-68
2022/01/16 11:20:31;;;;;;;1999.90;999.90;;;;;;;;;;5012153;28;20210;-70
2022/01/16 11:23:28;;;;;;;1999.90;999.90;;;;;;;;;;5010908;28;20408;-68
2022/01/16 11:26:14;;;;;;;1999.90;999.90;;;;;;;;;;5012169;28;20250;-69
2022/01/16 11:28:59;;;;;;;1999.90;999.90;;;;;;;;;;5011930;28;20207;-67
2022/01/16 11:31:48;;;;;;;1999.90;999.90;;;;;;;;;;5012001;28;20736;-68
2022/01/16 11:34:35;;;;;;;1999.90;999.90;;;;;;;;;;5011800;28;20207;-68
2022/01/16 11:37:20;;;;;;;1999.90;999.90;;;;;;;;;;5012100;28;20278;-69
2022/01/16 11:40:19;;;;;;;1999.90;999.90;;;;;;;;;;5011993;28;20569;-68
2022/01/16 11:43:37;;;;;;;1999.90;999.90;;;;;;;;;;5012117;28;20204;-68
2022/01/16 11:46:23;;;;;;;1999.90;999.90;;;;;;;;;;4913233;29;20260;-68
2022/01/16 11:49:13;;;;;;;1999.90;999.90;;;;;;;;;;4912820;29;20258;-69
2022/01/16 11:52:07;;;;;;;1999.90;999.90;;;;;;;;;;4997458;28;20245;-68
2022/01/16 11:54:53;;;;;;;1999.90;999.90;;;;;;;;;;5011616;28;20219;-69
2022/01/16 11:57:55;;;;;;;1999.90;999.90;;;;;;;;;;5011868;28;20679;-68
2022/01/16 12:00:44;;;;;;;1999.90;999.90;;;;;;;;;;5011881;28;20293;-68
2022/01/16 12:03:36;;;;;;;1999.90;999.90;;;;;;;;;;5011895;28;20198;-69
2022/01/16 12:06:31;;;;;;;1999.90;999.90;;;;;;;;;;5011840;28;20585;-70
2022/01/16 12:22:43;;;;;;;1999.90;999.90;;;;;;;;;;5109431;27;20588;-69
2022/01/16 12:25:30;;;;;;;1999.90;999.90;;;;;;;;;;5109485;28;20208;-69
2022/01/16 12:28:18;;;;;;;1999.90;999.90;;;;;;;;;;5108025;28;20401;-70
2022/01/16 12:31:03;;;;;;;1999.90;999.90;;;;;;;;;;5109340;28;20236;-69
2022/01/16 12:33:51;;;;;;;1999.90;999.90;;;;;;;;;;5109545;28;20204;-69
2022/01/16 12:36:35;;;;;;;1999.90;999.90;;;;;;;;;;5109272;28;20323;-68
2022/01/16 12:39:22;;;;;;;1999.90;999.90;;;;;;;;;;5109177;28;20219;-69
2022/01/16 12:42:07;;;;;;;1999.90;999.90;;;;;;;;;;5109252;28;20222;-69
2022/01/16 12:44:52;;;;;;;1999.90;999.90;;;;;;;;;;5109260;28;20243;-69
2022/01/16 12:47:37;;;;;;;1999.90;999.90;;;;;;;;;;5108926;28;20204;-68
2022/01/16 12:50:22;;;;;;;1999.90;999.90;;;;;;;;;;5109117;28;20213;-69
2022/01/16 12:53:07;;;;;;;1999.90;999.90;;;;;;;;;;5107671;28;20448;-69
2022/01/16 12:55:54;;;;;;;1999.90;999.90;;;;;;;;;;5109123;28;20487;-69
2022/01/16 12:58:38;;;;;;;1999.90;999.90;;;;;;;;;;5108838;28;20206;-69
2022/01/16 13:01:24;;;;;;;1999.90;999.90;;;;;;;;;;5108847;28;20325;-69
2022/01/16 13:04:17;;;;;;;1999.90;999.90;;;;;;;;;;5109025;28;20200;-69
2022/01/16 13:07:03;;;;;;;1999.90;999.90;;;;;;;;;;5108928;28;20320;-68
2022/01/16 13:09:48;;;;;;;1999.90;999.90;;;;;;;;;;5108267;28;20702;-69
2022/01/16 13:12:35;;;;;;;1999.90;999.90;;;;;;;;;;5108791;28;20577;-69
2022/01/16 13:15:22;;;;;;;1999.90;999.90;;;;;;;;;;5108515;28;20205;-69
2022/01/16 13:18:09;;;;;;;1999.90;999.90;;;;;;;;;;5108156;28;20785;-69
2022/01/16 13:21:04;;;;;;;1999.90;999.90;;;;;;;;;;5108470;28;20238;-68
2022/01/16 13:23:51;;;;;;;1999.90;999.90;;;;;;;;;;5094699;28;20210;-69
2022/01/16 13:26:35;;;;;;;1999.90;999.90;;;;;;;;;;5094868;28;20208;-68
2022/01/16 13:29:22;;;;;;;1999.90;999.90;;;;;;;;;;5094698;28;20222;-70
2022/01/16 13:32:09;;;;;;;1999.90;999.90;;;;;;;;;;5094502;28;20225;-69
2022/01/16 13:34:54;;;;;;;1999.90;999.90;;;;;;;;;;5094538;28;20212;-68
2022/01/16 13:37:39;;;;;;;1999.90;999.90;;;;;;;;;;5094584;28;20258;-68
2022/01/16 13:40:25;;;;;;;1999.90;999.90;;;;;;;;;;5094566;28;20213;-68
2022/01/16 13:43:12;;;;;;;1999.90;999.90;;;;;;;;;;5094357;28;20337;-69
2022/01/16 13:45:59;;;;;;;1999.90;999.90;;;;;;;;;;5094655;28;20601;-69
2022/01/16 13:48:44;;;;;;;1999.90;999.90;;;;;;;;;;5094346;28;20209;-69
2022/01/16 13:51:31;;;;;;;1999.90;999.90;;;;;;;;;;5094162;28;20241;-68
2022/01/16 13:54:16;;;;;;;1999.90;999.90;;;;;;;;;;5094399;28;20310;-69
2022/01/16 13:57:01;;;;;;;1999.90;999.90;;;;;;;;;;5094414;28;20688;-68
2022/01/16 13:59:56;;;;;;;1999.90;999.90;;;;;;;;;;5092638;28;20451;-69
2022/01/16 14:02:42;;;;;;;1999.90;999.90;;;;;;;;;;5094234;28;20226;-69
2022/01/16 14:05:27;;;;;;;1999.90;999.90;;;;;;;;;;5094237;28;20222;-69
2022/01/16 14:08:16;;;;;;;1999.90;999.90;;;;;;;;;;5093846;28;20687;-69
2022/01/16 14:11:08;;;;;;;1999.90;999.90;;;;;;;;;;5093912;28;20235;-67
2022/01/16 14:13:56;;;;;;;1999.90;999.90;;;;;;;;;;5094118;28;20202;-69
2022/01/16 14:16:46;;;;;;;1999.90;999.90;;;;;;;;;;5094077;28;20202;-68
2022/01/16 14:19:41;;;;;;;1999.90;999.90;;;;;;;;;;5093726;28;20258;-69
2022/01/16 14:22:27;;;;;;;1999.90;999.90;;;;;;;;;;5093334;28;20421;-69
2022/01/16 14:25:12;;;;;;;1999.90;999.90;;;;;;;;;;5093787;28;20297;-69
2022/01/16 14:27:57;;;;;;;1999.90;999.90;;;;;;;;;;5093502;28;20243;-69
2022/01/16 14:30:42;;;;;;;1999.90;999.90;;;;;;;;;;5093568;28;20226;-68
2022/01/16 14:33:27;;;;;;;1999.90;999.90;;;;;;;;;;5092895;28;20206;-69
2022/01/16 14:36:13;;;;;;;1999.90;999.90;;;;;;;;;;5093636;28;20247;-68
2022/01/16 14:38:58;;;;;;;1999.90;999.90;;;;;;;;;;5093241;28;20200;-70
2022/01/16 14:41:47;;;;;;;1999.90;999.90;;;;;;;;;;5093471;28;20707;-69
2022/01/16 14:44:33;;;;;;;1999.90;999.90;;;;;;;;;;5093934;28;20202;-69
2022/01/16 14:47:19;;;;;;;1999.90;999.90;;;;;;;;;;5093474;28;20268;-69
2022/01/16 14:50:05;;;;;;;1999.90;999.90;;;;;;;;;;5093445;28;20686;-69
2022/01/16 14:52:51;;;;;;;1999.90;999.90;;;;;;;;;;5093561;28;20200;-69
2022/01/16 14:55:38;;;;;;;1999.90;999.90;;;;;;;;;;5093502;28;20618;-69
2022/01/16 14:58:23;;;;;;;1999.90;999.90;;;;;;;;;;5093406;28;20204;-69
2022/01/16 15:01:08;;;;;;;1999.90;999.90;;;;;;;;;;5093032;28;20715;-68
2022/01/16 15:03:53;;;;;;;1999.90;999.90;;;;;;;;;;5093099;28;20209;-68
2022/01/16 15:06:39;;;;;;;1999.90;999.90;;;;;;;;;;5093081;28;20285;-69
2022/01/16 15:09:25;;;;;;;1999.90;999.90;;;;;;;;;;5092673;28;20695;-69
2022/01/16 15:12:12;;;;;;;1999.90;999.90;;;;;;;;;;5092569;28;20256;-69
2022/01/16 15:14:56;;;;;;;1999.90;999.90;;;;;;;;;;5092861;28;20208;-69
2022/01/16 15:17:44;;;;;;;1999.90;999.90;;;;;;;;;;5092459;28;20603;-69
2022/01/16 15:20:30;;;;;;;1999.90;999.90;;;;;;;;;;5092664;28;20271;-69
2022/01/16 15:23:15;;;;;;;1999.90;999.90;;;;;;;;;;5092743;28;20561;-69
2022/01/16 15:26:02;;;;;;;1999.90;999.90;;;;;;;;;;5092753;28;20340;-68
2022/01/16 15:28:47;;;;;;;1999.90;999.90;;;;;;;;;;5092141;28;20206;-69
2022/01/16 15:31:33;;;;;;;1999.90;999.90;;;;;;;;;;5092369;28;20229;-69
2022/01/16 15:34:19;;;;;;;1999.90;999.90;;;;;;;;;;5092344;28;20266;-69
2022/01/16 15:37:03;;;;;;;1999.90;999.90;;;;;;;;;;5092550;28;20212;-69
2022/01/16 15:39:49;;;;;;;1999.90;999.90;;;;;;;;;;5092191;28;20290;-68
2022/01/16 15:42:35;;;;;;;1999.90;999.90;;;;;;;;;;5092383;28;20236;-69
2022/01/16 15:45:22;;;;;;;1999.90;999.90;;;;;;;;;;5091919;28;20637;-69
2022/01/16 15:48:07;;;;;;;1999.90;999.90;;;;;;;;;;5092047;28;20205;-69
2022/01/16 15:50:52;;;;;;;1999.90;999.90;;;;;;;;;;5092184;28;20231;-67
2022/01/16 15:53:37;;;;;;;1999.90;999.90;;;;;;;;;;5092270;28;20582;-69
2022/01/16 15:56:22;;;;;;;1999.90;999.90;;;;;;;;;;5090803;28;20410;-69
2022/01/16 15:59:08;;;;;;;1999.90;999.90;;;;;;;;;;5092214;28;20225;-69
2022/01/16 16:01:53;;;;;;;1999.90;999.90;;;;;;;;;;5092413;28;20221;-69
2022/01/16 16:04:38;;;;;;;1999.90;999.90;;;;;;;;;;5092153;28;20226;-68
2022/01/16 16:07:23;;;;;;;1999.90;999.90;;;;;;;;;;5091836;28;20205;-69
2022/01/16 16:10:08;;;;;;;1999.90;999.90;;;;;;;;;;5091950;28;20231;-69
2022/01/16 16:12:53;;;;;;;1999.90;999.90;;;;;;;;;;5091816;28;20229;-70
2022/01/16 16:15:39;;;;;;;1999.90;999.90;;;;;;;;;;5092067;28;20699;-67
2022/01/16 16:18:24;;;;;;;1999.90;999.90;;;;;;;;;;5091506;28;20209;-69
2022/01/16 16:21:09;;;;;;;1999.90;999.90;;;;;;;;;;5091825;28;20309;-69
2022/01/16 16:23:54;;;;;;;1999.90;999.90;;;;;;;;;;5092011;28;20206;-69
2022/01/16 16:26:39;;;;;;;1999.90;999.90;;;;;;;;;;5091710;28;20353;-69
2022/01/16 16:29:24;;;;;;;1999.90;999.90;;;;;;;;;;5091441;28;20206;-69
2022/01/16 16:32:10;;;;;;;1999.90;999.90;;;;;;;;;;5091653;28;20319;-72
2022/01/16 16:34:55;;;;;;;1999.90;999.90;;;;;;;;;;5091889;28;20217;-69
2022/01/16 16:37:40;;;;;;;1999.90;999.90;;;;;;;;;;5091450;28;20703;-70
2022/01/16 16:40:25;;;;;;;1999.90;999.90;;;;;;;;;;5091745;28;20216;-68
2022/01/16 16:43:10;;;;;;;1999.90;999.90;;;;;;;;;;5091824;28;20231;-68
2022/01/16 16:45:55;;;;;;;1999.90;999.90;;;;;;;;;;5093148;28;20862;-70
2022/01/16 16:48:41;;;;;;;1999.90;999.90;;;;;;;;;;5095865;28;20205;-70
2022/01/16 16:51:26;;;;;;;1999.90;999.90;;;;;;;;;;5091527;28;20221;-68
2022/01/16 16:54:11;;;;;;;1999.90;999.90;;;;;;;;;;5093990;28;20223;-68
2022/01/16 16:56:56;;;;;;;1999.90;999.90;;;;;;;;;;5093158;28;20728;-68
2022/01/16 16:59:41;;;;;;;1999.90;999.90;;;;;;;;;;5094708;28;20405;-68
2022/01/16 17:02:26;;;;;;;1999.90;999.90;;;;;;;;;;5095400;28;20218;-68
2022/01/16 17:05:12;;;;;;;1999.90;999.90;;;;;;;;;;5095835;28;20250;-68
2022/01/16 17:07:57;;;;;;;1999.90;999.90;;;;;;;;;;5095079;28;20248;-68
2022/01/16 17:10:42;;;;;;;1999.90;999.90;;;;;;;;;;5095310;28;20230;-70
2022/01/16 17:13:27;;;;;;;1999.90;999.90;;;;;;;;;;5094944;28;20227;-69
2022/01/16 17:16:12;;;;;;;1999.90;999.90;;;;;;;;;;5095235;28;20209;-70
2022/01/16 17:19:04;;;;;;;1999.90;999.90;;;;;;;;;;5094923;28;20295;-69
2022/01/16 17:21:50;;;;;;;1999.90;999.90;;;;;;;;;;5094885;28;20272;-69
2022/01/16 17:24:35;;;;;;;1999.90;999.90;;;;;;;;;;5094567;28;20471;-68
2022/01/16 17:27:20;;;;;;;1999.90;999.90;;;;;;;;;;5094968;28;20340;-70
2022/01/16 17:30:06;;;;;;;1999.90;999.90;;;;;;;;;;5094827;28;20204;-69
2022/01/16 17:32:51;;;;;;;1999.90;999.90;;;;;;;;;;5094674;28;20231;-69
2022/01/16 17:35:36;;;;;;;1999.90;999.90;;;;;;;;;;5094821;28;20204;-69
2022/01/16 17:38:22;;;;;;;1999.90;999.90;;;;;;;;;;5094546;28;20312;-70
2022/01/16 17:41:07;;;;;;;1999.90;999.90;;;;;;;;;;5094722;28;20723;-69
2022/01/16 17:43:53;;;;;;;1999.90;999.90;;;;;;;;;;5094443;28;20691;-69
2022/01/16 17:46:38;;;;;;;1999.90;999.90;;;;;;;;;;5094623;28;20205;-69
2022/01/16 17:49:23;;;;;;;1999.90;999.90;;;;;;;;;;5094280;28;20283;-68
2022/01/16 17:52:08;;;;;;;1999.90;999.90;;;;;;;;;;5094336;28;20633;-69
2022/01/16 17:54:55;;;;;;;1999.90;999.90;;;;;;;;;;5094522;28;20265;-70
2022/01/16 17:57:40;;;;;;;1999.90;999.90;;;;;;;;;;5094240;28;20213;-69
2022/01/16 18:00:25;;;;;;;1999.90;999.90;;;;;;;;;;5094270;28;20338;-69
2022/01/16 18:03:10;;;;;;;1999.90;999.90;;;;;;;;;;5094279;28;20198;-68
2022/01/16 18:05:56;;;;;;;1999.90;999.90;;;;;;;;;;5094306;28;20207;-69
2022/01/16 18:08:41;;;;;;;1999.90;999.90;;;;;;;;;;5093551;28;20311;-69
2022/01/16 18:11:27;;;;;;;1999.90;999.90;;;;;;;;;;5093982;28;20223;-69
2022/01/16 18:14:12;;;;;;;1999.90;999.90;;;;;;;;;;5094131;28;20209;-69
2022/01/16 18:16:58;;;;;;;1999.90;999.90;;;;;;;;;;5094078;28;20293;-69
2022/01/16 18:19:44;;;;;;;1999.90;999.90;;;;;;;;;;5093666;28;20208;-68
2022/01/16 18:22:29;;;;;;;1999.90;999.90;;;;;;;;;;5093827;28;20221;-68
2022/01/16 18:25:14;;;;;;;1999.90;999.90;;;;;;;;;;5093903;28;20203;-69
2022/01/16 18:28:00;;;;;;;1999.90;999.90;;;;;;;;;;5093571;28;20208;-69
2022/01/16 18:30:45;;;;;;;1999.90;999.90;;;;;;;;;;5093648;28;20245;-69
2022/01/16 18:33:30;;;;;;;1999.90;999.90;;;;;;;;;;5093464;28;20939;-67
2022/01/16 18:36:15;;;;;;;1999.90;999.90;;;;;;;;;;5093638;28;20209;-68
2022/01/16 18:39:00;;;;;;;1999.90;999.90;;;;;;;;;;5092977;28;20205;-69
2022/01/16 18:41:45;;;;;;;1999.90;999.90;;;;;;;;;;5093512;28;20239;-69
2022/01/16 18:44:31;;;;;;;1999.90;999.90;;;;;;;;;;5093512;28;20223;-68
2022/01/16 18:47:19;;;;;;;1999.90;999.90;;;;;;;;;;5093392;28;20196;-69
2022/01/16 18:50:05;;;;;;;1999.90;999.90;;;;;;;;;;5093310;28;20731;-69
2022/01/16 18:52:50;;;;;;;1999.90;999.90;;;;;;;;;;5093133;28;20220;-68
2022/01/16 18:55:35;;;;;;;1999.90;999.90;;;;;;;;;;5091926;28;20455;-69
2022/01/16 18:58:21;;;;;;;1999.90;999.90;;;;;;;;;;5092946;28;20674;-70
2022/01/16 19:01:08;;;;;;;1999.90;999.90;;;;;;;;;;5093104;28;20233;-69
2022/01/16 19:03:53;;;;;;;1999.90;999.90;;;;;;;;;;5092865;28;20383;-68
2022/01/16 19:06:38;;;;;;;1999.90;999.90;;;;;;;;;;5092822;28;20200;-70
2022/01/16 19:09:23;;;;;;;1999.90;999.90;;;;;;;;;;5092765;28;20263;-70
2022/01/16 19:12:09;;;;;;;1999.90;999.90;;;;;;;;;;5093451;28;20629;-69
2022/01/16 19:14:54;;;;;;;1999.90;999.90;;;;;;;;;;5093050;28;20336;-69
2022/01/16 19:17:40;;;;;;;1999.90;999.90;;;;;;;;;;5092679;28;20321;-68
2022/01/16 19:20:25;;;;;;;1999.90;999.90;;;;;;;;;;5092136;28;20251;-69
2022/01/16 19:23:10;;;;;;;1999.90;999.90;;;;;;;;;;5092803;28;20193;-70
2022/01/16 19:25:56;;;;;;;1999.90;999.90;;;;;;;;;;5092509;28;20584;-69
2022/01/16 19:28:41;;;;;;;1999.90;999.90;;;;;;;;;;5092517;28;20205;-69
2022/01/16 19:31:25;;;;;;;1999.90;999.90;;;;;;;;;;5090753;28;20233;-69
2022/01/16 19:34:12;;;;;;;1999.90;999.90;;;;;;;;;;5085144;28;20360;-69
2022/01/16 19:36:57;;;;;;;1999.90;999.90;;;;;;;;;;5083950;28;20590;-70
2022/01/16 19:39:43;;;;;;;1999.90;999.90;;;;;;;;;;5091572;28;20302;-70
2022/01/16 19:42:27;;;;;;;1999.90;999.90;;;;;;;;;;5085613;28;20227;-70
2022/01/16 19:45:12;;;;;;;1999.90;999.90;;;;;;;;;;5089621;28;20221;-70
2022/01/16 19:47:57;;;;;;;1999.90;999.90;;;;;;;;;;5074824;28;20302;-70
2022/01/16 19:50:46;;;;;;;1999.90;999.90;;;;;;;;;;5073967;28;20229;-70
2022/01/16 19:53:31;;;;;;;1999.90;999.90;;;;;;;;;;5087948;28;20710;-70
2022/01/16 19:56:17;;;;;;;1999.90;999.90;;;;;;;;;;5087693;28;20190;-70
2022/01/16 19:59:02;;;;;;;1999.90;999.90;;;;;;;;;;5089803;28;20417;-70
2022/01/16 20:01:47;;;;;;;1999.90;999.90;;;;;;;;;;5091963;28;20272;-70
2022/01/16 20:04:32;;;;;;;1999.90;999.90;;;;;;;;;;5092138;28;20203;-70
2022/01/16 20:07:18;;;;;;;1999.90;999.90;;;;;;;;;;5085340;28;20210;-70
2022/01/16 20:10:05;;;;;;;1999.90;999.90;;;;;;;;;;5071510;28;20206;-70
2022/01/16 20:12:49;;;;;;;1999.90;999.90;;;;;;;;;;5071723;28;20229;-69
2022/01/16 20:15:36;;;;;;;1999.90;999.90;;;;;;;;;;5071679;28;20209;-70
2022/01/16 20:18:21;;;;;;;1999.90;999.90;;;;;;;;;;5071588;28;20204;-71
2022/01/16 20:21:06;;;;;;;1999.90;999.90;;;;;;;;;;5078964;28;20240;-70
2022/01/16 20:23:53;;;;;;;1999.90;999.90;;;;;;;;;;5087108;28;20380;-69
2022/01/16 20:26:38;;;;;;;1999.90;999.90;;;;;;;;;;5091764;28;20425;-70
2022/01/16 20:29:23;;;;;;;1999.90;999.90;;;;;;;;;;5091521;28;20201;-69
2022/01/16 20:32:08;;;;;;;1999.90;999.90;;;;;;;;;;5092599;28;20223;-71
2022/01/16 20:34:53;;;;;;;1999.90;999.90;;;;;;;;;;5095707;28;20293;-70
2022/01/16 20:37:42;;;;;;;1999.90;999.90;;;;;;;;;;5095676;28;20209;-70
2022/01/16 20:40:30;;;;;;;1999.90;999.90;;;;;;;;;;5095830;28;20205;-70
2022/01/16 20:43:15;;;;;;;1999.90;999.90;;;;;;;;;;5079247;28;20913;-70
2022/01/16 20:46:00;;;;;;;1999.90;999.90;;;;;;;;;;5087730;28;20232;-69
2022/01/16 20:48:46;;;;;;;1999.90;999.90;;;;;;;;;;5089133;28;20206;-70
2022/01/16 20:51:31;;;;;;;1999.90;999.90;;;;;;;;;;5089083;28;20355;-70
2022/01/16 20:54:16;;;;;;;1999.90;999.90;;;;;;;;;;5092924;28;20222;-70
2022/01/16 20:57:04;;;;;;;1999.90;999.90;;;;;;;;;;5089478;28;20214;-70
2022/01/16 20:59:48;;;;;;;1999.90;999.90;;;;;;;;;;5091550;28;20208;-70
2022/01/16 21:02:33;;;;;;;1999.90;999.90;;;;;;;;;;5093150;28;20652;-70
2022/01/16 21:05:18;;;;;;;1999.90;999.90;;;;;;;;;;5092831;28;20213;-70
2022/01/16 21:08:06;;;;;;;1999.90;999.90;;;;;;;;;;5090747;28;20233;-71
2022/01/16 21:10:55;;;;;;;1999.90;999.90;;;;;;;;;;5089087;28;20233;-71
2022/01/16 21:13:41;;;;;;;1999.90;999.90;;;;;;;;;;5085869;28;20226;-69
2022/01/16 21:16:28;;;;;;;1999.90;999.90;;;;;;;;;;5092296;28;20204;-69
2022/01/16 21:19:13;;;;;;;1999.90;999.90;;;;;;;;;;5092607;28;20336;-70
2022/01/16 21:21:58;;;;;;;1999.90;999.90;;;;;;;;;;5090037;28;20371;-69
2022/01/16 21:24:45;;;;;;;1999.90;999.90;;;;;;;;;;5092803;28;20758;-69
2022/01/16 21:27:30;;;;;;;1999.90;999.90;;;;;;;;;;5091955;28;20401;-71
2022/01/16 21:30:16;;;;;;;1999.90;999.90;;;;;;;;;;5092025;28;20231;-70
2022/01/16 21:33:01;;;;;;;1999.90;999.90;;;;;;;;;;5092852;28;20733;-70
2022/01/16 21:35:46;;;;;;;1999.90;999.90;;;;;;;;;;5092615;28;20592;-69
2022/01/16 21:38:31;;;;;;;1999.90;999.90;;;;;;;;;;5092441;28;20207;-69
2022/01/16 21:41:16;;;;;;;1999.90;999.90;;;;;;;;;;5092748;28;20316;-71